sensor_id;sensor_type;location;lat;lon;timestamp;P1;durP1;ratioP1;P2;durP2;ratioP2
64623;SDS011;51031;50.912;9.242;2022-08-06T00:00:04;59.25;;;45.20;;
64623;SDS011;51031;50.912;9.242;2022-08-06T00:00:27;39.13;;;30.08;;
64623;SDS011;51031;50.912;9.242;2022-08-06T00:00:42;41.88;;;32.10;;
64623;SDS011;51031;50.912;9.242;2022-08-06T00:00:59;56.58;;;43.40;;
64623;SDS011;51031;50.912;9.242;2022-08-06T00:01:15;58.40;;;45.30;;
64623;SDS011;51031;50.912;9.242;2022-08-06T00:01:31;57.70;;;44.57;;
64623;SDS011;51031;50.912;9.242;2022-08-06T00:01:47;52.38;;;39.97;;
64623;SDS011;51031;50.912;9.242;2022-08-06T00:02:03;53.70;;;40.53;;
64623;SDS011;51031;50.912;9.242;2022-08-06T00:02:21;54.50;;;40.47;;
64623;SDS011;51031;50.912;9.242;2022-08-06T00:02:41;56.00;;;42.53;;
64623;SDS011;51031;50.912;9.242;2022-08-06T00:02:56;59.10;;;45.55;;
64623;SDS011;51031;50.912;9.242;2022-08-06T00:03:12;56.83;;;43.17;;
64623;SDS011;51031;50.912;9.242;2022-08-06T00:03:28;53.92;;;41.38;;
64623;SDS011;51031;50.912;9.242;2022-08-06T00:03:45;56.90;;;43.53;;
64623;SDS011;51031;50.912;9.242;2022-08-06T00:04:01;56.80;;;42.95;;
64623;SDS011;51031;50.912;9.242;2022-08-06T00:04:17;55.88;;;43.03;;
64623;SDS011;51031;50.912;9.242;2022-08-06T00:04:33;56.20;;;43.58;;
64623;SDS011;51031;50.912;9.242;2022-08-06T00:04:49;57.03;;;43.58;;
64623;SDS011;51031;50.912;9.242;2022-08-06T00:05:05;53.88;;;40.50;;
64623;SDS011;51031;50.912;9.242;2022-08-06T00:05:22;49.83;;;38.67;;
64623;SDS011;51031;50.912;9.242;2022-08-06T00:05:39;51.67;;;39.72;;
64623;SDS011;51031;50.912;9.242;2022-08-06T00:05:55;52.53;;;40.22;;
64623;SDS011;51031;50.912;9.242;2022-08-06T00:06:10;45.22;;;34.78;;
64623;SDS011;51031;50.912;9.242;2022-08-06T00:06:26;41.50;;;31.90;;
64623;SDS011;51031;50.912;9.242;2022-08-06T00:06:42;50.30;;;38.55;;
64623;SDS011;51031;50.912;9.242;2022-08-06T00:06:59;55.25;;;41.70;;
64623;SDS011;51031;50.912;9.242;2022-08-06T00:07:15;51.83;;;39.37;;
64623;SDS011;51031;50.912;9.242;2022-08-06T00:07:31;49.75;;;38.15;;
64623;SDS011;51031;50.912;9.242;2022-08-06T00:07:47;40.60;;;31.25;;
64623;SDS011;51031;50.912;9.242;2022-08-06T00:08:04;35.42;;;26.75;;
64623;SDS011;51031;50.912;9.242;2022-08-06T00:08:20;41.25;;;31.20;;
64623;SDS011;51031;50.912;9.242;2022-08-06T00:08:38;36.58;;;28.23;;
64623;SDS011;51031;50.912;9.242;2022-08-06T00:08:54;31.92;;;24.20;;
64623;SDS011;51031;50.912;9.242;2022-08-06T00:09:09;35.70;;;26.73;;
64623;SDS011;51031;50.912;9.242;2022-08-06T00:09:26;38.15;;;28.67;;
64623;SDS011;51031;50.912;9.242;2022-08-06T00:09:45;34.90;;;26.55;;
64623;SDS011;51031;50.912;9.242;2022-08-06T00:10:01;32.25;;;23.58;;
64623;SDS011;51031;50.912;9.242;2022-08-06T00:10:18;41.30;;;31.23;;
64623;SDS011;51031;50.912;9.242;2022-08-06T00:10:35;36.03;;;27.38;;
64623;SDS011;51031;50.912;9.242;2022-08-06T00:10:52;34.03;;;24.35;;
64623;SDS011;51031;50.912;9.242;2022-08-06T00:11:08;44.28;;;31.67;;
64623;SDS011;51031;50.912;9.242;2022-08-06T00:11:24;38.55;;;28.45;;
64623;SDS011;51031;50.912;9.242;2022-08-06T00:11:39;36.65;;;27.65;;
64623;SDS011;51031;50.912;9.242;2022-08-06T00:11:56;41.45;;;31.23;;
64623;SDS011;51031;50.912;9.242;2022-08-06T00:12:12;38.45;;;28.92;;
64623;SDS011;51031;50.912;9.242;2022-08-06T00:12:28;36.58;;;27.52;;
64623;SDS011;51031;50.912;9.242;2022-08-06T00:12:46;42.85;;;32.17;;
64623;SDS011;51031;50.912;9.242;2022-08-06T00:13:02;39.55;;;29.80;;
64623;SDS011;51031;50.912;9.242;2022-08-06T00:13:18;32.95;;;25.00;;
64623;SDS011;51031;50.912;9.242;2022-08-06T00:13:34;40.15;;;29.50;;
64623;SDS011;51031;50.912;9.242;2022-08-06T00:13:50;43.97;;;32.47;;
64623;SDS011;51031;50.912;9.242;2022-08-06T00:14:05;40.05;;;30.70;;
64623;SDS011;51031;50.912;9.242;2022-08-06T00:14:23;35.78;;;27.85;;
64623;SDS011;51031;50.912;9.242;2022-08-06T00:14:38;29.38;;;22.38;;
64623;SDS011;51031;50.912;9.242;2022-08-06T00:14:54;28.58;;;21.52;;
64623;SDS011;51031;50.912;9.242;2022-08-06T00:15:11;39.85;;;29.70;;
64623;SDS011;51031;50.912;9.242;2022-08-06T00:15:27;42.70;;;31.33;;
64623;SDS011;51031;50.912;9.242;2022-08-06T00:15:45;39.58;;;29.35;;
64623;SDS011;51031;50.912;9.242;2022-08-06T00:16:00;36.35;;;26.85;;
64623;SDS011;51031;50.912;9.242;2022-08-06T00:16:16;27.83;;;19.73;;
64623;SDS011;51031;50.912;9.242;2022-08-06T00:16:32;23.37;;;15.80;;
64623;SDS011;51031;50.912;9.242;2022-08-06T00:16:48;30.27;;;21.55;;
64623;SDS011;51031;50.912;9.242;2022-08-06T00:17:04;33.22;;;24.15;;
64623;SDS011;51031;50.912;9.242;2022-08-06T00:17:21;35.13;;;26.15;;
64623;SDS011;51031;50.912;9.242;2022-08-06T00:17:37;35.10;;;26.77;;
64623;SDS011;51031;50.912;9.242;2022-08-06T00:17:53;30.15;;;22.63;;
64623;SDS011;51031;50.912;9.242;2022-08-06T00:18:09;31.00;;;23.02;;
64623;SDS011;51031;50.912;9.242;2022-08-06T00:18:25;37.85;;;28.48;;
64623;SDS011;51031;50.912;9.242;2022-08-06T00:18:41;36.28;;;27.05;;
64623;SDS011;51031;50.912;9.242;2022-08-06T00:18:57;36.17;;;27.20;;
64623;SDS011;51031;50.912;9.242;2022-08-06T00:19:13;36.42;;;28.00;;
64623;SDS011;51031;50.912;9.242;2022-08-06T00:19:29;32.75;;;25.17;;
64623;SDS011;51031;50.912;9.242;2022-08-06T00:19:46;31.10;;;23.67;;
64623;SDS011;51031;50.912;9.242;2022-08-06T00:20:02;31.50;;;23.92;;
64623;SDS011;51031;50.912;9.242;2022-08-06T00:20:19;26.77;;;19.63;;
64623;SDS011;51031;50.912;9.242;2022-08-06T00:20:35;20.00;;;14.30;;
64623;SDS011;51031;50.912;9.242;2022-08-06T00:20:51;24.85;;;18.05;;
64623;SDS011;51031;50.912;9.242;2022-08-06T00:21:07;25.25;;;18.30;;
64623;SDS011;51031;50.912;9.242;2022-08-06T00:21:23;17.73;;;12.53;;
64623;SDS011;51031;50.912;9.242;2022-08-06T00:21:39;16.25;;;10.52;;
64623;SDS011;51031;50.912;9.242;2022-08-06T00:21:56;17.02;;;11.07;;
64623;SDS011;51031;50.912;9.242;2022-08-06T00:22:12;12.63;;;8.68;;
64623;SDS011;51031;50.912;9.242;2022-08-06T00:22:28;11.98;;;7.75;;
64623;SDS011;51031;50.912;9.242;2022-08-06T00:22:45;20.42;;;12.50;;
64623;SDS011;51031;50.912;9.242;2022-08-06T00:23:03;20.52;;;13.55;;
64623;SDS011;51031;50.912;9.242;2022-08-06T00:23:19;19.35;;;13.55;;
64623;SDS011;51031;50.912;9.242;2022-08-06T00:23:34;17.53;;;11.47;;
64623;SDS011;51031;50.912;9.242;2022-08-06T00:23:50;17.45;;;12.15;;
64623;SDS011;51031;50.912;9.242;2022-08-06T00:24:06;20.63;;;14.95;;
64623;SDS011;51031;50.912;9.242;2022-08-06T00:24:23;20.05;;;14.40;;
64623;SDS011;51031;50.912;9.242;2022-08-06T00:24:39;23.50;;;17.23;;
64623;SDS011;51031;50.912;9.242;2022-08-06T00:24:55;26.25;;;19.40;;
64623;SDS011;51031;50.912;9.242;2022-08-06T00:25:11;20.27;;;14.83;;
64623;SDS011;51031;50.912;9.242;2022-08-06T00:25:27;19.40;;;13.55;;
64623;SDS011;51031;50.912;9.242;2022-08-06T00:25:45;24.65;;;17.35;;
64623;SDS011;51031;50.912;9.242;2022-08-06T00:26:01;24.52;;;17.95;;
64623;SDS011;51031;50.912;9.242;2022-08-06T00:26:17;25.43;;;18.53;;
64623;SDS011;51031;50.912;9.242;2022-08-06T00:26:33;23.40;;;16.48;;
64623;SDS011;51031;50.912;9.242;2022-08-06T00:26:49;29.30;;;20.98;;
64623;SDS011;51031;50.912;9.242;2022-08-06T00:27:05;32.63;;;23.75;;
64623;SDS011;51031;50.912;9.242;2022-08-06T00:27:21;24.65;;;17.45;;
64623;SDS011;51031;50.912;9.242;2022-08-06T00:27:37;17.45;;;11.55;;
64623;SDS011;51031;50.912;9.242;2022-08-06T00:27:53;24.00;;;17.33;;
64623;SDS011;51031;50.912;9.242;2022-08-06T00:28:09;26.63;;;19.55;;
64623;SDS011;51031;50.912;9.242;2022-08-06T00:28:25;30.30;;;21.77;;
64623;SDS011;51031;50.912;9.242;2022-08-06T00:28:41;30.58;;;22.45;;
64623;SDS011;51031;50.912;9.242;2022-08-06T00:28:58;31.65;;;23.15;;
64623;SDS011;51031;50.912;9.242;2022-08-06T00:29:14;32.73;;;23.87;;
64623;SDS011;51031;50.912;9.242;2022-08-06T00:29:30;32.50;;;24.17;;
64623;SDS011;51031;50.912;9.242;2022-08-06T00:29:45;32.45;;;24.40;;
64623;SDS011;51031;50.912;9.242;2022-08-06T00:30:01;30.60;;;23.48;;
64623;SDS011;51031;50.912;9.242;2022-08-06T00:30:18;30.13;;;23.27;;
64623;SDS011;51031;50.912;9.242;2022-08-06T00:30:35;29.67;;;22.55;;
64623;SDS011;51031;50.912;9.242;2022-08-06T00:30:51;29.70;;;22.55;;
64623;SDS011;51031;50.912;9.242;2022-08-06T00:31:06;26.20;;;19.55;;
64623;SDS011;51031;50.912;9.242;2022-08-06T00:31:22;26.60;;;19.00;;
64623;SDS011;51031;50.912;9.242;2022-08-06T00:31:38;31.60;;;21.98;;
64623;SDS011;51031;50.912;9.242;2022-08-06T00:31:55;30.67;;;22.33;;
64623;SDS011;51031;50.912;9.242;2022-08-06T00:32:11;27.50;;;20.83;;
64623;SDS011;51031;50.912;9.242;2022-08-06T00:32:26;26.80;;;19.80;;
64623;SDS011;51031;50.912;9.242;2022-08-06T00:32:42;25.33;;;18.77;;
64623;SDS011;51031;50.912;9.242;2022-08-06T00:32:58;27.88;;;20.20;;
64623;SDS011;51031;50.912;9.242;2022-08-06T00:33:14;30.02;;;21.48;;
64623;SDS011;51031;50.912;9.242;2022-08-06T00:33:31;28.33;;;20.25;;
64623;SDS011;51031;50.912;9.242;2022-08-06T00:33:46;28.40;;;20.73;;
64623;SDS011;51031;50.912;9.242;2022-08-06T00:34:02;29.67;;;21.63;;
64623;SDS011;51031;50.912;9.242;2022-08-06T00:34:19;26.65;;;19.42;;
64623;SDS011;51031;50.912;9.242;2022-08-06T00:34:35;26.17;;;19.17;;
64623;SDS011;51031;50.912;9.242;2022-08-06T00:34:51;25.02;;;18.23;;
64623;SDS011;51031;50.912;9.242;2022-08-06T00:35:07;21.83;;;15.75;;
64623;SDS011;51031;50.912;9.242;2022-08-06T00:35:23;21.93;;;15.53;;
64623;SDS011;51031;50.912;9.242;2022-08-06T00:35:39;21.42;;;15.10;;
64623;SDS011;51031;50.912;9.242;2022-08-06T00:35:55;21.10;;;15.10;;
64623;SDS011;51031;50.912;9.242;2022-08-06T00:36:10;16.67;;;11.27;;
64623;SDS011;51031;50.912;9.242;2022-08-06T00:36:26;17.80;;;11.73;;
64623;SDS011;51031;50.912;9.242;2022-08-06T00:36:44;22.98;;;15.80;;
64623;SDS011;51031;50.912;9.242;2022-08-06T00:37:00;16.83;;;10.88;;
64623;SDS011;51031;50.912;9.242;2022-08-06T00:37:16;13.43;;;8.52;;
64623;SDS011;51031;50.912;9.242;2022-08-06T00:37:32;20.58;;;14.80;;
64623;SDS011;51031;50.912;9.242;2022-08-06T00:37:48;19.20;;;12.83;;
64623;SDS011;51031;50.912;9.242;2022-08-06T00:38:04;17.58;;;11.52;;
64623;SDS011;51031;50.912;9.242;2022-08-06T00:38:21;23.75;;;17.05;;
64623;SDS011;51031;50.912;9.242;2022-08-06T00:38:37;23.85;;;17.05;;
64623;SDS011;51031;50.912;9.242;2022-08-06T00:38:52;19.27;;;13.48;;
64623;SDS011;51031;50.912;9.242;2022-08-06T00:39:11;20.85;;;15.02;;
64623;SDS011;51031;50.912;9.242;2022-08-06T00:39:28;23.10;;;16.70;;
64623;SDS011;51031;50.912;9.242;2022-08-06T00:39:44;23.63;;;16.98;;
64623;SDS011;51031;50.912;9.242;2022-08-06T00:39:59;25.77;;;19.08;;
64623;SDS011;51031;50.912;9.242;2022-08-06T00:40:15;28.05;;;21.27;;
64623;SDS011;51031;50.912;9.242;2022-08-06T00:40:34;27.70;;;20.75;;
64623;SDS011;51031;50.912;9.242;2022-08-06T00:40:52;27.30;;;20.23;;
64623;SDS011;51031;50.912;9.242;2022-08-06T00:41:08;26.55;;;20.00;;
64623;SDS011;51031;50.912;9.242;2022-08-06T00:41:25;26.55;;;19.92;;
64623;SDS011;51031;50.912;9.242;2022-08-06T00:41:41;24.08;;;17.85;;
64623;SDS011;51031;50.912;9.242;2022-08-06T00:41:57;23.95;;;17.05;;
64623;SDS011;51031;50.912;9.242;2022-08-06T00:42:16;25.65;;;18.70;;
64623;SDS011;51031;50.912;9.242;2022-08-06T00:42:32;26.73;;;19.73;;
64623;SDS011;51031;50.912;9.242;2022-08-06T00:42:49;28.08;;;20.75;;
64623;SDS011;51031;50.912;9.242;2022-08-06T00:43:06;25.08;;;18.90;;
64623;SDS011;51031;50.912;9.242;2022-08-06T00:43:21;23.20;;;17.67;;
64623;SDS011;51031;50.912;9.242;2022-08-06T00:43:38;24.98;;;19.40;;
64623;SDS011;51031;50.912;9.242;2022-08-06T00:43:56;27.17;;;20.02;;
64623;SDS011;51031;50.912;9.242;2022-08-06T00:44:14;26.75;;;19.77;;
64623;SDS011;51031;50.912;9.242;2022-08-06T00:44:30;26.60;;;19.80;;
64623;SDS011;51031;50.912;9.242;2022-08-06T00:44:45;26.75;;;19.30;;
64623;SDS011;51031;50.912;9.242;2022-08-06T00:45:01;27.00;;;19.13;;
64623;SDS011;51031;50.912;9.242;2022-08-06T00:45:18;27.13;;;19.52;;
64623;SDS011;51031;50.912;9.242;2022-08-06T00:45:35;24.98;;;17.92;;
64623;SDS011;51031;50.912;9.242;2022-08-06T00:45:51;21.55;;;15.02;;
64623;SDS011;51031;50.912;9.242;2022-08-06T00:46:07;23.35;;;16.67;;
64623;SDS011;51031;50.912;9.242;2022-08-06T00:46:23;24.98;;;18.40;;
64623;SDS011;51031;50.912;9.242;2022-08-06T00:46:39;20.08;;;14.25;;
64623;SDS011;51031;50.912;9.242;2022-08-06T00:46:55;21.03;;;15.10;;
64623;SDS011;51031;50.912;9.242;2022-08-06T00:47:11;26.35;;;18.77;;
64623;SDS011;51031;50.912;9.242;2022-08-06T00:47:27;27.23;;;19.23;;
64623;SDS011;51031;50.912;9.242;2022-08-06T00:47:43;26.67;;;18.92;;
64623;SDS011;51031;50.912;9.242;2022-08-06T00:47:59;25.87;;;18.43;;
64623;SDS011;51031;50.912;9.242;2022-08-06T00:48:15;24.92;;;18.05;;
64623;SDS011;51031;50.912;9.242;2022-08-06T00:48:31;25.47;;;18.37;;
64623;SDS011;51031;50.912;9.242;2022-08-06T00:48:48;25.83;;;18.83;;
64623;SDS011;51031;50.912;9.242;2022-08-06T00:49:03;26.15;;;19.13;;
64623;SDS011;51031;50.912;9.242;2022-08-06T00:49:19;25.08;;;18.90;;
64623;SDS011;51031;50.912;9.242;2022-08-06T00:49:35;24.63;;;18.50;;
64623;SDS011;51031;50.912;9.242;2022-08-06T00:49:51;23.88;;;17.75;;
64623;SDS011;51031;50.912;9.242;2022-08-06T00:50:07;23.65;;;18.30;;
64623;SDS011;51031;50.912;9.242;2022-08-06T00:50:23;23.38;;;17.65;;
64623;SDS011;51031;50.912;9.242;2022-08-06T00:50:40;23.88;;;17.00;;
64623;SDS011;51031;50.912;9.242;2022-08-06T00:50:56;26.98;;;19.27;;
64623;SDS011;51031;50.912;9.242;2022-08-06T00:51:11;26.80;;;19.10;;
64623;SDS011;51031;50.912;9.242;2022-08-06T00:51:27;20.98;;;14.25;;
64623;SDS011;51031;50.912;9.242;2022-08-06T00:51:43;14.90;;;9.73;;
64623;SDS011;51031;50.912;9.242;2022-08-06T00:52:00;21.63;;;14.68;;
64623;SDS011;51031;50.912;9.242;2022-08-06T00:52:16;23.15;;;16.65;;
64623;SDS011;51031;50.912;9.242;2022-08-06T00:52:32;22.40;;;16.50;;
64623;SDS011;51031;50.912;9.242;2022-08-06T00:52:47;24.98;;;17.63;;
64623;SDS011;51031;50.912;9.242;2022-08-06T00:53:03;23.40;;;16.70;;
64623;SDS011;51031;50.912;9.242;2022-08-06T00:53:19;22.42;;;16.58;;
64623;SDS011;51031;50.912;9.242;2022-08-06T00:53:35;24.93;;;18.87;;
64623;SDS011;51031;50.912;9.242;2022-08-06T00:53:52;25.00;;;19.02;;
64623;SDS011;51031;50.912;9.242;2022-08-06T00:54:11;25.85;;;19.48;;
64623;SDS011;51031;50.912;9.242;2022-08-06T00:54:27;23.35;;;17.35;;
64623;SDS011;51031;50.912;9.242;2022-08-06T00:54:43;23.75;;;17.55;;
64623;SDS011;51031;50.912;9.242;2022-08-06T00:54:58;24.92;;;18.65;;
64623;SDS011;51031;50.912;9.242;2022-08-06T00:55:14;25.27;;;18.63;;
64623;SDS011;51031;50.912;9.242;2022-08-06T00:55:31;26.25;;;19.63;;
64623;SDS011;51031;50.912;9.242;2022-08-06T00:55:47;26.42;;;19.38;;
64623;SDS011;51031;50.912;9.242;2022-08-06T00:56:05;26.05;;;18.73;;
64623;SDS011;51031;50.912;9.242;2022-08-06T00:56:21;25.98;;;18.95;;
64623;SDS011;51031;50.912;9.242;2022-08-06T00:56:37;26.67;;;18.93;;
64623;SDS011;51031;50.912;9.242;2022-08-06T00:56:53;27.58;;;19.60;;
64623;SDS011;51031;50.912;9.242;2022-08-06T00:57:09;26.63;;;19.70;;
64623;SDS011;51031;50.912;9.242;2022-08-06T00:57:25;24.92;;;18.75;;
64623;SDS011;51031;50.912;9.242;2022-08-06T00:57:41;25.20;;;18.67;;
64623;SDS011;51031;50.912;9.242;2022-08-06T00:57:56;25.95;;;18.48;;
64623;SDS011;51031;50.912;9.242;2022-08-06T00:58:12;25.30;;;18.30;;
64623;SDS011;51031;50.912;9.242;2022-08-06T00:58:29;24.95;;;18.63;;
64623;SDS011;51031;50.912;9.242;2022-08-06T00:58:45;24.43;;;17.47;;
64623;SDS011;51031;50.912;9.242;2022-08-06T00:59:01;24.45;;;16.90;;
64623;SDS011;51031;50.912;9.242;2022-08-06T00:59:17;26.88;;;19.50;;
64623;SDS011;51031;50.912;9.242;2022-08-06T00:59:33;23.17;;;17.70;;
64623;SDS011;51031;50.912;9.242;2022-08-06T00:59:50;21.23;;;15.85;;
64623;SDS011;51031;50.912;9.242;2022-08-06T01:00:06;24.55;;;18.38;;
64623;SDS011;51031;50.912;9.242;2022-08-06T01:00:23;25.60;;;18.98;;
64623;SDS011;51031;50.912;9.242;2022-08-06T01:00:39;26.77;;;19.13;;
64623;SDS011;51031;50.912;9.242;2022-08-06T01:00:55;26.65;;;19.35;;
64623;SDS011;51031;50.912;9.242;2022-08-06T01:01:11;26.30;;;19.63;;
64623;SDS011;51031;50.912;9.242;2022-08-06T01:01:27;26.50;;;19.58;;
64623;SDS011;51031;50.912;9.242;2022-08-06T01:01:44;25.83;;;19.70;;
64623;SDS011;51031;50.912;9.242;2022-08-06T01:02:00;25.33;;;19.70;;
64623;SDS011;51031;50.912;9.242;2022-08-06T01:02:15;25.25;;;19.02;;
64623;SDS011;51031;50.912;9.242;2022-08-06T01:02:31;23.67;;;17.08;;
64623;SDS011;51031;50.912;9.242;2022-08-06T01:02:47;24.52;;;17.50;;
64623;SDS011;51031;50.912;9.242;2022-08-06T01:03:03;26.85;;;19.08;;
64623;SDS011;51031;50.912;9.242;2022-08-06T01:03:19;27.00;;;19.37;;
64623;SDS011;51031;50.912;9.242;2022-08-06T01:03:36;26.30;;;19.52;;
64623;SDS011;51031;50.912;9.242;2022-08-06T01:03:51;20.15;;;13.98;;
64623;SDS011;51031;50.912;9.242;2022-08-06T01:04:07;19.05;;;12.85;;
64623;SDS011;51031;50.912;9.242;2022-08-06T01:04:23;23.80;;;17.33;;
64623;SDS011;51031;50.912;9.242;2022-08-06T01:04:40;22.50;;;16.48;;
64623;SDS011;51031;50.912;9.242;2022-08-06T01:04:56;24.85;;;18.05;;
64623;SDS011;51031;50.912;9.242;2022-08-06T01:05:11;23.40;;;16.95;;
64623;SDS011;51031;50.912;9.242;2022-08-06T01:05:28;15.38;;;10.35;;
64623;SDS011;51031;50.912;9.242;2022-08-06T01:05:43;9.03;;;4.87;;
64623;SDS011;51031;50.912;9.242;2022-08-06T01:05:59;10.10;;;5.55;;
64623;SDS011;51031;50.912;9.242;2022-08-06T01:06:15;9.90;;;5.43;;
64623;SDS011;51031;50.912;9.242;2022-08-06T01:06:32;17.43;;;11.87;;
64623;SDS011;51031;50.912;9.242;2022-08-06T01:06:47;29.67;;;21.77;;
64623;SDS011;51031;50.912;9.242;2022-08-06T01:07:03;26.90;;;19.55;;
64623;SDS011;51031;50.912;9.242;2022-08-06T01:07:19;19.85;;;14.57;;
64623;SDS011;51031;50.912;9.242;2022-08-06T01:07:35;20.85;;;15.57;;
64623;SDS011;51031;50.912;9.242;2022-08-06T01:07:51;19.58;;;14.25;;
64623;SDS011;51031;50.912;9.242;2022-08-06T01:08:07;15.88;;;11.23;;
64623;SDS011;51031;50.912;9.242;2022-08-06T01:08:23;15.82;;;11.13;;
64623;SDS011;51031;50.912;9.242;2022-08-06T01:08:39;22.63;;;16.40;;
64623;SDS011;51031;50.912;9.242;2022-08-06T01:08:55;31.25;;;23.38;;
64623;SDS011;51031;50.912;9.242;2022-08-06T01:09:11;31.52;;;23.42;;
64623;SDS011;51031;50.912;9.242;2022-08-06T01:09:28;33.53;;;24.50;;
64623;SDS011;51031;50.912;9.242;2022-08-06T01:09:44;25.42;;;18.95;;
64623;SDS011;51031;50.912;9.242;2022-08-06T01:10:00;21.50;;;16.15;;
64623;SDS011;51031;50.912;9.242;2022-08-06T01:10:16;17.38;;;11.85;;
64623;SDS011;51031;50.912;9.242;2022-08-06T01:10:31;14.50;;;8.83;;
64623;SDS011;51031;50.912;9.242;2022-08-06T01:10:48;19.58;;;13.35;;
64623;SDS011;51031;50.912;9.242;2022-08-06T01:11:05;21.73;;;15.77;;
64623;SDS011;51031;50.912;9.242;2022-08-06T01:11:25;31.92;;;23.70;;
64623;SDS011;51031;50.912;9.242;2022-08-06T01:11:41;33.75;;;24.80;;
64623;SDS011;51031;50.912;9.242;2022-08-06T01:11:57;23.70;;;16.70;;
64623;SDS011;51031;50.912;9.242;2022-08-06T01:12:13;19.40;;;11.98;;
64623;SDS011;51031;50.912;9.242;2022-08-06T01:12:29;22.73;;;15.27;;
64623;SDS011;51031;50.912;9.242;2022-08-06T01:12:45;25.55;;;18.98;;
64623;SDS011;51031;50.912;9.242;2022-08-06T01:13:01;24.87;;;18.97;;
64623;SDS011;51031;50.912;9.242;2022-08-06T01:13:17;25.55;;;19.08;;
64623;SDS011;51031;50.912;9.242;2022-08-06T01:13:33;24.95;;;18.33;;
64623;SDS011;51031;50.912;9.242;2022-08-06T01:13:49;23.70;;;17.40;;
64623;SDS011;51031;50.912;9.242;2022-08-06T01:14:06;24.60;;;17.98;;
64623;SDS011;51031;50.912;9.242;2022-08-06T01:14:22;23.77;;;16.92;;
64623;SDS011;51031;50.912;9.242;2022-08-06T01:14:38;24.20;;;17.00;;
64623;SDS011;51031;50.912;9.242;2022-08-06T01:14:54;25.05;;;18.33;;
64623;SDS011;51031;50.912;9.242;2022-08-06T01:15:10;25.05;;;18.63;;
64623;SDS011;51031;50.912;9.242;2022-08-06T01:15:26;25.00;;;18.40;;
64623;SDS011;51031;50.912;9.242;2022-08-06T01:15:42;24.13;;;18.10;;
64623;SDS011;51031;50.912;9.242;2022-08-06T01:16:09;23.80;;;17.52;;
64623;SDS011;51031;50.912;9.242;2022-08-06T01:16:29;22.92;;;16.67;;
64623;SDS011;51031;50.912;9.242;2022-08-06T01:16:54;23.75;;;17.27;;
64623;SDS011;51031;50.912;9.242;2022-08-06T01:17:14;23.48;;;16.80;;
64623;SDS011;51031;50.912;9.242;2022-08-06T01:17:37;23.58;;;17.08;;
64623;SDS011;51031;50.912;9.242;2022-08-06T01:17:58;22.40;;;15.80;;
64623;SDS011;51031;50.912;9.242;2022-08-06T01:18:18;18.90;;;12.93;;
64623;SDS011;51031;50.912;9.242;2022-08-06T01:18:43;18.92;;;12.98;;
64623;SDS011;51031;50.912;9.242;2022-08-06T01:19:12;21.20;;;15.05;;
64623;SDS011;51031;50.912;9.242;2022-08-06T01:19:48;16.45;;;11.80;;
64623;SDS011;51031;50.912;9.242;2022-08-06T01:20:13;13.43;;;9.15;;
64623;SDS011;51031;50.912;9.242;2022-08-06T01:20:54;12.77;;;8.18;;
64623;SDS011;51031;50.912;9.242;2022-08-06T01:21:23;17.33;;;12.88;;
64623;SDS011;51031;50.912;9.242;2022-08-06T01:22:08;20.95;;;15.00;;
64623;SDS011;51031;50.912;9.242;2022-08-06T01:22:35;20.48;;;15.15;;
64623;SDS011;51031;50.912;9.242;2022-08-06T01:23:15;23.55;;;15.95;;
64623;SDS011;51031;50.912;9.242;2022-08-06T01:23:46;22.75;;;16.27;;
64623;SDS011;51031;50.912;9.242;2022-08-06T01:24:30;21.42;;;16.17;;
64623;SDS011;51031;50.912;9.242;2022-08-06T01:25:09;23.10;;;17.10;;
64623;SDS011;51031;50.912;9.242;2022-08-06T01:25:36;24.83;;;17.67;;
64623;SDS011;51031;50.912;9.242;2022-08-06T01:26:12;23.08;;;17.10;;
64623;SDS011;51031;50.912;9.242;2022-08-06T01:26:40;23.85;;;18.02;;
64623;SDS011;51031;50.912;9.242;2022-08-06T01:27:11;23.63;;;16.75;;
64623;SDS011;51031;50.912;9.242;2022-08-06T01:27:44;25.05;;;16.75;;
64623;SDS011;51031;50.912;9.242;2022-08-06T01:28:04;23.08;;;16.92;;
64623;SDS011;51031;50.912;9.242;2022-08-06T01:28:26;23.23;;;16.75;;
64623;SDS011;51031;50.912;9.242;2022-08-06T01:28:48;23.20;;;17.13;;
64623;SDS011;51031;50.912;9.242;2022-08-06T01:29:11;23.00;;;16.55;;
64623;SDS011;51031;50.912;9.242;2022-08-06T01:29:34;20.45;;;14.68;;
64623;SDS011;51031;50.912;9.242;2022-08-06T01:29:55;22.02;;;15.77;;
64623;SDS011;51031;50.912;9.242;2022-08-06T01:30:17;21.85;;;16.10;;
64623;SDS011;51031;50.912;9.242;2022-08-06T01:30:35;21.90;;;16.02;;
64623;SDS011;51031;50.912;9.242;2022-08-06T01:30:59;18.98;;;13.98;;
64623;SDS011;51031;50.912;9.242;2022-08-06T01:31:20;16.70;;;11.98;;
64623;SDS011;51031;50.912;9.242;2022-08-06T01:31:43;17.93;;;13.00;;
64623;SDS011;51031;50.912;9.242;2022-08-06T01:32:03;18.13;;;12.40;;
64623;SDS011;51031;50.912;9.242;2022-08-06T01:32:23;21.80;;;14.55;;
64623;SDS011;51031;50.912;9.242;2022-08-06T01:32:45;20.95;;;14.80;;
64623;SDS011;51031;50.912;9.242;2022-08-06T01:33:07;20.50;;;14.77;;
64623;SDS011;51031;50.912;9.242;2022-08-06T01:33:29;20.25;;;14.75;;
64623;SDS011;51031;50.912;9.242;2022-08-06T01:33:52;18.77;;;13.70;;
64623;SDS011;51031;50.912;9.242;2022-08-06T01:34:16;19.80;;;14.63;;
64623;SDS011;51031;50.912;9.242;2022-08-06T01:34:38;20.45;;;14.57;;
64623;SDS011;51031;50.912;9.242;2022-08-06T01:34:57;19.95;;;14.18;;
64623;SDS011;51031;50.912;9.242;2022-08-06T01:35:17;19.45;;;14.32;;
64623;SDS011;51031;50.912;9.242;2022-08-06T01:35:38;20.27;;;14.07;;
64623;SDS011;51031;50.912;9.242;2022-08-06T01:35:59;20.25;;;14.43;;
64623;SDS011;51031;50.912;9.242;2022-08-06T01:36:18;19.70;;;13.80;;
64623;SDS011;51031;50.912;9.242;2022-08-06T01:36:39;19.98;;;14.30;;
64623;SDS011;51031;50.912;9.242;2022-08-06T01:36:59;16.48;;;11.30;;
64623;SDS011;51031;50.912;9.242;2022-08-06T01:37:21;16.77;;;10.68;;
64623;SDS011;51031;50.912;9.242;2022-08-06T01:37:43;17.30;;;11.70;;
64623;SDS011;51031;50.912;9.242;2022-08-06T01:38:05;19.02;;;12.57;;
64623;SDS011;51031;50.912;9.242;2022-08-06T01:38:24;15.85;;;10.15;;
64623;SDS011;51031;50.912;9.242;2022-08-06T01:38:43;15.82;;;10.70;;
64623;SDS011;51031;50.912;9.242;2022-08-06T01:39:02;13.57;;;8.75;;
64623;SDS011;51031;50.912;9.242;2022-08-06T01:39:18;12.88;;;8.13;;
64623;SDS011;51031;50.912;9.242;2022-08-06T01:39:37;14.88;;;9.93;;
64623;SDS011;51031;50.912;9.242;2022-08-06T01:39:57;15.20;;;10.68;;
64623;SDS011;51031;50.912;9.242;2022-08-06T01:40:18;12.77;;;8.93;;
64623;SDS011;51031;50.912;9.242;2022-08-06T01:40:44;13.00;;;9.23;;
64623;SDS011;51031;50.912;9.242;2022-08-06T01:41:04;15.80;;;11.00;;
64623;SDS011;51031;50.912;9.242;2022-08-06T01:41:23;16.52;;;11.38;;
64623;SDS011;51031;50.912;9.242;2022-08-06T01:41:54;15.75;;;11.20;;
64623;SDS011;51031;50.912;9.242;2022-08-06T01:42:14;15.98;;;11.45;;
64623;SDS011;51031;50.912;9.242;2022-08-06T01:42:31;18.13;;;13.00;;
64623;SDS011;51031;50.912;9.242;2022-08-06T01:42:48;17.13;;;12.13;;
64623;SDS011;51031;50.912;9.242;2022-08-06T01:43:06;15.77;;;9.70;;
64623;SDS011;51031;50.912;9.242;2022-08-06T01:43:24;12.15;;;6.95;;
64623;SDS011;51031;50.912;9.242;2022-08-06T01:43:43;9.85;;;6.25;;
64623;SDS011;51031;50.912;9.242;2022-08-06T01:43:59;10.13;;;6.00;;
64623;SDS011;51031;50.912;9.242;2022-08-06T01:44:16;12.20;;;7.40;;